Latest Coastal Weather Observations for Cape Naturaliste

IDW60701

Issued at 5:35 pm WST Thursday 31 July 2014 (issued every 10 minutes, with the page automatically refreshed every 10 minutes)

About coastal observations | Map of coastal stations | Coastal observations for WA | Marine services | Other Formats
Station Details ID: 009519 Name: CAPE NATURALISTE Lat: -33.54 Lon: 115.02 Height: 109.0 m
Data from the previous 72 hours. | See also: Recent months at Cape Naturaliste
Date/Time
WST
Temp

°C
Wind Pressure Rain
since 9am
mm
Weather Cloud Vis
km
Sea
Height
m
Swell
Dir
 
Speed
knots
Gust
knots
hPa Trend Height
m
Period
s
Dir
31/05:30pm 10.1 SSE 7 9 1027.0 - 0.0 - - - - - - -
31/05:00pm 11.3 SSE 7 9 1026.8 - 0.0 - - - - - - -
31/04:30pm 13.2 E 4 5 1026.6 - 0.0 - - - - - - -
31/04:00pm 13.7 E 4 6 1026.6 - 0.0 - - - - - - -
31/03:30pm 13.8 ENE 6 9 1026.7 - 0.0 - - - - - - -
31/03:00pm 13.6 ENE 7 10 1026.7 - 0.0 - - - - - - -
31/02:30pm 13.7 E 9 12 1026.7 - 0.0 - - - - - - -
31/02:00pm 14.3 E 8 11 1026.8 - 0.0 - - - - - - -
31/01:30pm 14.6 E 10 13 1027.0 - 0.0 - - - - - - -
31/01:00pm 14.1 E 10 13 1027.2 - 0.0 - - - - - - -
31/12:30pm 13.3 E 10 14 1027.4 - 0.0 - - - - - - -
31/12:00pm 12.8 ESE 8 13 1027.7 - 0.0 - - - - - - -
31/11:30am 12.8 SE 9 12 1028.0 - 0.0 - - - - - - -
31/11:00am 12.6 SSE 8 11 1028.2 - 0.0 - - - - - - -
31/10:30am 12.1 SSE 9 14 1028.0 - 0.0 - - - - - - -
31/10:00am 11.7 SSE 9 12 1027.8 - 0.0 - - - - - - -
31/09:30am 11.0 SE 11 16 1027.8 - 0.0 - - - - - - -
31/09:00am 10.7 SSE 8 13 1027.6 - 0.6 - - - - - - -
31/08:30am 10.3 S 8 11 1027.2 - 0.6 - - - - - - -
31/08:00am 10.0 S 10 13 1026.9 - 0.6 - - - - - - -
31/07:30am 10.2 S 13 20 1026.4 - 0.6 - - - - - - -
31/07:00am 10.0 SSE 12 17 1025.8 - 0.6 - - - - - - -
31/06:30am 10.5 SSE 12 19 1025.1 - 0.6 - - - - - - -
31/06:00am 10.6 SSE 13 20 1024.7 - 0.6 - - - - - - -
31/05:30am 10.6 S 11 15 1024.3 - 0.6 - - - - - - -
31/05:00am 10.6 SSE 10 15 1024.0 - 0.6 - - - - - - -
31/04:30am 10.5 SSE 11 16 1023.9 - 0.6 - - - - - - -
31/04:00am 11.1 S 12 17 1023.9 - 0.6 - - - - - - -
31/03:30am 11.1 S 11 14 1023.9 - 0.6 - - - - - - -
31/03:00am 11.5 S 14 19 1023.8 - 0.6 - - - - - - -
31/02:31am 11.4 S 18 28 1023.7 - 0.6 - - - - - - -
31/02:30am 11.4 S 19 28 1023.7 - 0.6 - - - - - - -
31/02:17am 12.0 S 17 27 1023.6 - 0.6 - - - - - - -
31/02:00am 12.1 SSW 17 22 1023.6 - 0.6 - - - - - - -
31/01:52am 12.1 SSW 18 28 1023.6 - 0.6 - - - - - - -
31/01:30am 12.6 SSW 18 24 1023.3 - 0.6 - - - - - - -
31/01:00am 12.5 SSW 15 22 1023.1 - 0.6 - - - - - - -
31/12:30am 12.2 SSW 18 25 1023.0 - 0.6 - - - - - - -
31/12:00am 12.3 SSW 19 30 1022.9 - 0.6 - - - - - - -
 
Date/Time
WST
Temp

°C
Wind Pressure Rain
since 9am
mm
Weather Cloud Vis
km
Sea
Height
m
Swell
Dir
 
Speed
knots
Gust
knots
hPa Trend Height
m
Period
s
Dir
30/11:30pm 12.7 SSW 18 25 1022.8 - 0.6 - - - - - - -
30/11:00pm 12.7 SSW 21 27 1022.8 - 0.6 - - - - - - -
30/10:45pm 13.0 SSW 20 30 1022.6 - 0.6 - - - - - - -
30/10:30pm 13.0 SW 20 27 1022.4 - 0.6 - - - - - - -
30/10:00pm 13.0 SSW 20 26 1022.0 - 0.6 - - - - - - -
30/09:30pm 12.7 SW 18 31 1021.9 - 0.6 - - - - - - -
30/09:22pm 13.2 SW 20 30 1021.9 - 0.4 - - - - - - -
30/09:00pm 14.1 SW 20 25 1021.6 - 0.4 - - - - - - -
30/08:30pm 14.4 SW 19 25 1021.4 - 0.4 - - - - - - -
30/08:00pm 14.4 SW 19 24 1021.2 - 0.4 - - - - - - -
30/07:30pm 14.3 SW 19 24 1021.0 - 0.4 - - - - - - -
30/07:00pm 14.4 SW 18 24 1021.0 - 0.4 - - - - - - -
30/06:30pm 14.4 SW 19 25 1020.9 - 0.4 - - - - - - -
30/06:00pm 14.5 SW 18 24 1020.7 - 0.2 - - - - - - -
30/05:30pm 14.6 SW 19 24 1020.4 - 0.2 - - - - - - -
30/05:00pm 14.8 SW 19 26 1020.0 - 0.2 - - - - - - -
30/04:30pm 14.6 SW 17 24 1020.1 - 0.2 - - - - - - -
30/04:00pm 14.2 SW 15 19 1019.8 - 0.2 - - - - - - -
30/03:30pm 14.4 SW 18 27 1019.9 - 0.2 - - - - - - -
30/03:00pm 16.3 WSW 20 26 1019.3 - 0.0 - - - - - - -
30/02:30pm 16.9 W 18 23 1019.2 - 0.0 - - - - - - -
30/02:00pm 17.5 W 17 24 1019.1 - 0.0 - - - - - - -
30/01:30pm 17.1 W 20 27 1019.4 - 0.0 - - - - - - -
30/01:00pm 17.2 W 17 23 1019.3 - 0.0 - - - - - - -
30/12:30pm 15.8 W 21 28 1019.7 - 0.0 - - - - - - -
30/12:00pm 17.5 W 18 25 1019.8 - 0.0 - - - - - - -
30/11:30am 17.6 W 15 19 1020.2 - 0.0 - - - - - - -
30/11:00am 17.8 W 18 22 1020.2 - 0.0 - - - - - - -
30/10:30am 15.9 W 17 26 1020.6 - 0.0 - - - - - - -
30/10:00am 15.9 W 16 21 1020.7 - 0.0 - - - - - - -
30/09:30am 16.1 W 19 24 1020.5 - 0.0 - - - - - - -
30/09:00am 15.7 W 19 25 1020.1 - 0.2 - - - - - - -
30/08:30am 15.4 WNW 18 25 1020.1 - 0.2 - - - - - - -
30/08:00am 15.5 W 17 24 1020.0 - 0.2 - - - - - - -
30/07:30am 15.5 W 20 26 1019.8 - 0.2 - - - - - - -
30/07:00am 15.3 W 18 25 1019.7 - 0.2 - - - - - - -
30/06:30am 15.4 W 16 22 1019.8 - 0.2 - - - - - - -
30/06:00am 15.2 WNW 15 20 1019.5 - 0.2 - - - - - - -
30/05:30am 15.4 W 16 20 1019.6 - 0.2 - - - - - - -
30/05:00am 15.1 WNW 17 21 1019.4 - 0.2 - - - - - - -
30/04:30am 15.3 WNW 17 23 1019.5 - 0.2 - - - - - - -
30/04:00am 15.4 W 19 24 1019.6 - 0.2 - - - - - - -
30/03:30am 15.5 W 18 21 1019.9 - 0.2 - - - - - - -
30/03:00am 15.4 WNW 17 21 1020.0 - 0.2 - - - - - - -
30/02:30am 15.4 WNW 16 23 1020.4 - 0.2 - - - - - - -
30/02:00am 15.5 W 17 23 1020.5 - 0.2 - - - - - - -
30/01:30am 15.5 W 19 24 1020.7 - 0.2 - - - - - - -
30/01:00am 15.7 W 17 21 1020.5 - 0.2 - - - - - - -
30/12:30am 15.8 W 18 22 1020.8 - 0.2 - - - - - - -
30/12:00am 15.5 WNW 15 20 1021.0 - 0.2 Recent precip. - - - - - -
 
Date/Time
WST
Temp

°C
Wind Pressure Rain
since 9am
mm
Weather Cloud Vis
km
Sea
Height
m
Swell
Dir
 
Speed
knots
Gust
knots
hPa Trend Height
m
Period
s
Dir
29/11:30pm 15.5 WNW 17 22 1021.0 - 0.0 - - - - - - -
29/11:00pm 15.5 WNW 15 21 1021.3 - 0.0 - - - - - - -
29/10:30pm 15.4 WNW 16 20 1021.5 - 0.0 - - - - - - -
29/10:00pm 14.6 WNW 16 21 1021.5 - 0.0 - - - - - - -
29/09:30pm 15.6 WNW 15 21 1021.3 - 0.0 - - - - - - -
29/09:00pm 15.4 WNW 16 20 1021.5 - 0.0 - - - - - - -
29/08:30pm 15.3 W 15 21 1021.6 - 0.0 - - - - - - -
29/08:00pm 15.0 W 13 16 1021.7 - 0.0 - - - - - - -
29/07:30pm 14.8 W 17 24 1021.7 - 0.0 - - - - - - -
29/07:00pm 15.3 W 17 23 1021.6 - 0.0 - - - - - - -
29/06:30pm 14.8 WNW 16 22 1021.7 - 0.0 - - - - - - -
29/06:00pm 14.2 WNW 16 21 1021.7 - 0.0 - - - - - - -
29/05:30pm 14.2 WNW 15 19 1021.4 - 0.0 - - - - - - -
29/05:00pm 15.1 WNW 14 18 1021.4 - 0.0 - - - - - - -
29/04:30pm 14.7 WNW 11 19 1021.2 - 0.0 - - - - - - -
29/04:00pm 15.1 WNW 15 21 1021.3 - 0.0 - - - - - - -
29/03:30pm 16.8 WNW 13 17 1021.2 - 0.0 - - - - - - -
29/03:00pm 15.4 WNW 11 15 1021.0 - 0.0 - - - - - - -
29/02:30pm 15.9 NW 12 16 1021.1 - 0.0 - - - - - - -
29/02:00pm 16.1 WNW 15 19 1021.3 - 0.0 - - - - - - -
29/01:30pm 16.2 WNW 14 18 1021.4 - 0.0 - - - - - - -
29/01:00pm 17.2 WNW 12 16 1021.4 - 0.0 - - - - - - -
29/12:30pm 16.4 WNW 13 17 1021.8 - 0.0 - - - - - - -
29/12:00pm 16.6 W 13 16 1022.0 - 0.0 - - - - - - -
29/11:30am 17.0 W 13 16 1022.4 - 0.0 - - - - - - -
29/11:00am 16.1 W 16 23 1022.6 - 0.0 - - - - - - -
29/10:30am 16.2 WNW 14 18 1022.8 - 0.0 - - - - - - -
29/10:00am 16.1 WNW 13 18 1022.6 - 0.0 - - - - - - -
29/09:30am 15.9 W 12 18 1022.3 - 0.0 - - - - - - -
29/09:00am 16.6 W 12 15 1022.2 - 0.2 - - - - - - -
29/08:30am 15.3 W 14 19 1022.0 - 0.2 - - - - - - -
29/08:00am 15.2 W 13 17 1021.8 - 0.2 - - - - - - -
29/07:30am 15.0 W 12 15 1021.5 - 0.2 - - - - - - -
29/07:00am 15.2 W 15 20 1021.3 - 0.2 - - - - - - -
29/06:30am 15.2 W 13 17 1021.1 - 0.2 - - - - - - -
29/06:00am 15.2 W 14 17 1021.0 - 0.2 - - - - - - -
29/05:30am 15.0 WSW 13 17 1021.0 - 0.2 - - - - - - -
29/05:00am 15.0 W 14 19 1020.8 - 0.2 - - - - - - -
29/04:30am 15.3 W 14 18 1020.6 - 0.2 - - - - - - -
29/04:00am 15.3 W 17 22 1020.7 - 0.2 - - - - - - -
29/03:30am 15.4 W 18 22 1020.6 - 0.2 - - - - - - -
29/03:00am 15.4 W 15 21 1020.7 - 0.2 - - - - - - -
29/02:30am 15.3 W 17 22 1020.8 - 0.2 - - - - - - -
29/02:00am 15.3 W 19 23 1020.8 - 0.2 - - - - - - -
29/01:30am 15.2 W 17 22 1020.8 - 0.2 - - - - - - -
29/01:00am 14.8 W 16 19 1021.0 - 0.2 - - - - - - -
29/12:30am 15.2 W 16 20 1021.1 - 0.2 - - - - - - -
29/12:00am 15.2 W 16 21 1021.1 - 0.2 - - - - - - -
 
Date/Time
WST
Temp

°C
Wind Pressure Rain
since 9am
mm
Weather Cloud Vis
km
Sea
Height
m
Swell
Dir
 
Speed
knots
Gust
knots
hPa Trend Height
m
Period
s
Dir
28/11:30pm 14.7 W 18 23 1021.4 - 0.2 - - - - - - -
28/11:00pm 14.4 W 14 18 1021.4 - 0.2 - - - - - - -
28/10:37pm 15.3 W 15 25 1021.4 - 0.2 - - - - - - -
28/10:30pm 15.4 W 12 16 1021.5 - 0.2 - - - - - - -
28/10:00pm 14.9 WNW 15 18 1021.5 - 0.2 - - - - - - -
28/09:30pm 15.6 W 14 19 1021.3 - 0.2 - - - - - - -
28/09:00pm 15.3 WSW 17 21 1021.6 - 0.2 - - - - - - -
28/08:30pm 15.5 W 16 20 1021.6 - 0.2 - - - - - - -
28/08:00pm 15.4 W 14 19 1021.4 - 0.2 - - - - - - -
28/07:30pm 15.0 W 14 19 1021.4 - 0.2 - - - - - - -
28/07:00pm 15.3 W 16 21 1021.2 - 0.2 - - - - - - -
28/06:30pm 15.3 W 16 20 1021.1 - 0.2 - - - - - - -
28/06:00pm 15.2 W 17 22 1020.8 - 0.2 - - - - - - -

Other Formats:

Comma delimited format used in spreadsheet applications
http://www.bom.gov.au/fwo/IDW60701/IDW60701.94600.axf

JavaScript Object Notation format (JSON) in row-major order
http://www.bom.gov.au/fwo/IDW60701/IDW60701.94600.json